createdAt,value
2022-08-17T02:21:25.615Z,5.32
2022-08-17T02:25:31.731Z,5.40
2022-08-17T02:29:34.907Z,5.85
2022-08-17T02:33:42.527Z,5.60
2022-08-17T02:37:48.462Z,5.65
2022-08-17T02:42:02.762Z,6.07
2022-08-17T02:46:05.928Z,5.88
2022-08-17T02:50:11.388Z,5.63
2022-08-17T02:54:41.206Z,6.35
2022-08-17T02:58:39.367Z,5.85
2022-08-17T03:02:44.234Z,5.25
2022-08-17T03:06:47.378Z,5.20
2022-08-17T03:10:52.197Z,6.47
2022-08-17T03:14:56.509Z,6.07
2022-08-17T03:18:59.647Z,5.70
2022-08-17T03:23:03.341Z,5.72
2022-08-17T03:27:35.567Z,7.10
2022-08-17T03:32:13.694Z,6.00
2022-08-17T03:36:44.313Z,5.57
2022-08-17T03:41:26.766Z,5.90
2022-08-17T03:46:34.303Z,5.82
2022-08-17T03:50:56.036Z,5.90
2022-08-17T03:55:36.166Z,6.15
2022-08-17T03:59:40.922Z,6.50
2022-08-17T04:03:45.625Z,5.88
2022-08-17T04:08:19.395Z,5.97
2022-08-17T04:12:56.327Z,6.10
2022-08-17T04:16:59.437Z,5.82
2022-08-17T04:21:03.976Z,6.05
2022-08-17T04:25:10.521Z,6.90
2022-08-17T04:29:14.001Z,6.68
2022-08-17T04:33:50.713Z,6.85
2022-08-17T04:38:30.506Z,6.15
2022-08-17T04:43:09.254Z,6.00
2022-08-17T04:47:40.389Z,6.47
2022-08-17T04:52:32.256Z,5.97
2022-08-17T04:57:15.961Z,6.10
2022-08-17T05:01:50.738Z,5.47
2022-08-17T05:06:28.050Z,6.47
2022-08-17T05:10:35.229Z,6.40
2022-08-17T05:15:16.082Z,5.22
2022-08-17T05:19:19.201Z,5.55
2022-08-17T05:23:58.468Z,6.22
2022-08-17T05:28:33.342Z,6.07
2022-08-17T05:33:11.226Z,6.10
2022-08-17T05:37:45.337Z,5.60
2022-08-17T05:42:22.098Z,5.35
2022-08-17T05:46:36.961Z,5.50
2022-08-17T05:51:13.831Z,6.13
2022-08-17T05:55:47.905Z,5.60
2022-08-17T06:00:21.310Z,5.90
2022-08-17T06:05:06.259Z,5.85
2022-08-17T06:09:40.859Z,5.00
2022-08-17T06:14:15.795Z,5.22
2022-08-17T06:18:21.704Z,5.05
2022-08-17T06:22:59.779Z,4.93
2022-08-17T06:27:35.834Z,5.75
2022-08-17T06:31:41.473Z,4.60
2022-08-17T06:36:25.024Z,4.30
2022-08-17T06:40:58.803Z,4.70
2022-08-17T06:45:32.433Z,4.00
2022-08-17T06:50:05.862Z,4.25
2022-08-17T06:54:16.497Z,3.97
2022-08-17T06:58:23.184Z,3.95
2022-08-17T07:02:58.970Z,4.28
2022-08-17T07:07:47.949Z,3.60
2022-08-17T07:12:12.778Z,4.15
2022-08-17T07:16:42.295Z,4.07
2022-08-17T07:26:07.653Z,3.50
2022-08-17T07:30:47.330Z,3.70
2022-08-17T07:35:17.839Z,3.03
2022-08-17T07:39:59.569Z,3.10
2022-08-17T07:44:28.030Z,3.13
2022-08-17T07:49:23.366Z,3.35
2022-08-17T07:53:54.564Z,3.00
2022-08-17T07:58:28.466Z,3.58
2022-08-17T08:03:13.758Z,2.80
2022-08-17T08:07:45.106Z,2.63
2022-08-17T08:11:48.517Z,3.00
2022-08-17T08:16:26.838Z,2.88
2022-08-17T08:20:52.623Z,2.80
2022-08-17T08:25:24.295Z,3.13
2022-08-17T08:30:10.128Z,2.50
2022-08-17T08:35:00.165Z,2.80
2022-08-17T08:38:54.990Z,2.65
2022-08-17T08:43:08.270Z,2.50
2022-08-17T08:47:44.578Z,2.92
2022-08-17T08:51:55.551Z,2.60
2022-08-17T08:56:06.911Z,2.47
2022-08-17T09:00:39.516Z,2.63
2022-08-17T09:05:18.667Z,2.60
2022-08-17T09:09:50.825Z,2.72
2022-08-17T09:14:28.300Z,2.60
2022-08-17T09:19:04.623Z,2.30
2022-08-17T09:23:38.442Z,3.30
2022-08-17T09:27:53.489Z,2.50
2022-08-17T09:31:58.747Z,2.50
2022-08-17T09:36:35.947Z,2.20
2022-08-17T09:41:14.353Z,2.33
2022-08-17T09:45:31.567Z,2.25
2022-08-17T09:49:45.251Z,2.35
2022-08-17T09:53:50.284Z,2.30
2022-08-17T09:58:31.635Z,2.20
2022-08-17T10:03:02.723Z,2.10
2022-08-17T10:07:43.412Z,2.45
2022-08-17T10:12:29.944Z,2.35
2022-08-17T10:16:55.969Z,2.63
2022-08-17T10:21:21.554Z,2.40
2022-08-17T10:25:59.317Z,2.70
2022-08-17T10:30:17.365Z,2.35
2022-08-17T10:35:01.394Z,2.50
2022-08-17T10:39:30.725Z,2.53
2022-08-17T10:44:37.992Z,2.22
2022-08-17T10:48:34.619Z,2.20
2022-08-17T10:53:05.159Z,2.30
2022-08-17T10:57:43.289Z,2.50
2022-08-17T11:02:21.973Z,2.35
2022-08-17T11:06:52.433Z,2.13
2022-08-17T11:11:12.371Z,2.20
2022-08-17T11:15:45.205Z,2.40
2022-08-17T11:20:15.295Z,2.35
2022-08-17T11:24:22.186Z,3.00
2022-08-17T11:28:56.434Z,2.17
2022-08-17T11:33:00.372Z,2.30
2022-08-17T11:37:41.828Z,2.40
2022-08-17T11:42:18.209Z,2.35
2022-08-17T11:47:12.519Z,2.20
2022-08-17T11:51:36.355Z,2.13
2022-08-17T11:56:06.411Z,2.17
2022-08-17T12:00:31.327Z,2.70
2022-08-17T12:04:37.356Z,2.67
2022-08-17T12:09:14.734Z,2.60
2022-08-17T12:13:47.988Z,2.45
2022-08-17T12:18:24.587Z,2.35
2022-08-17T12:28:06.895Z,2.00
2022-08-17T12:32:17.835Z,2.20
2022-08-17T12:36:46.339Z,2.42
2022-08-17T12:40:57.946Z,2.30
2022-08-17T12:45:29.447Z,2.38
2022-08-17T12:50:28.301Z,2.20
2022-08-17T12:55:12.167Z,2.58
2022-08-17T12:59:45.267Z,2.53
2022-08-17T13:03:53.506Z,2.17
2022-08-17T13:08:26.208Z,2.47
2022-08-17T13:13:04.937Z,2.50
2022-08-17T13:17:36.128Z,2.25
2022-08-17T13:22:14.348Z,2.50
2022-08-17T13:26:49.588Z,2.47
2022-08-17T13:31:26.380Z,2.47
2022-08-17T13:35:39.193Z,2.72
2022-08-17T13:39:45.707Z,3.03
2022-08-17T13:44:28.303Z,2.28
2022-08-17T13:49:03.831Z,2.50
2022-08-17T13:53:44.358Z,2.60
2022-08-17T13:58:23.614Z,2.88
2022-08-17T14:02:57.890Z,2.38
2022-08-17T14:07:34.856Z,2.45
2022-08-17T14:11:55.513Z,2.47
2022-08-17T14:16:33.903Z,2.53
2022-08-17T14:21:08.509Z,2.40
2022-08-17T14:30:30.137Z,2.47
2022-08-17T14:35:07.029Z,2.47
2022-08-17T14:39:40.905Z,2.28
2022-08-17T14:43:44.156Z,2.40
2022-08-17T14:47:48.185Z,2.58
2022-08-17T14:52:22.206Z,2.20
2022-08-17T14:57:22.309Z,2.58
2022-08-17T15:01:24.591Z,2.20
2022-08-17T15:05:58.447Z,2.60
2022-08-17T15:10:35.288Z,2.28
2022-08-17T15:14:57.224Z,2.17
2022-08-17T15:19:31.303Z,2.50
2022-08-17T15:23:34.602Z,2.40
2022-08-17T15:28:12.061Z,2.33
2022-08-17T15:32:54.566Z,2.25
2022-08-17T15:37:26.125Z,2.33
2022-08-17T15:42:04.726Z,2.17
2022-08-17T15:46:38.725Z,2.17
2022-08-17T15:51:16.158Z,2.28
2022-08-17T15:55:49.825Z,2.58
2022-08-17T16:00:28.270Z,2.20
2022-08-17T16:05:05.950Z,2.40
2022-08-17T16:09:39.675Z,2.28
2022-08-17T16:14:14.046Z,2.33
2022-08-17T16:18:48.759Z,2.42
2022-08-17T16:23:26.447Z,2.40
2022-08-17T16:28:05.478Z,2.40
2022-08-17T16:32:39.854Z,2.50
2022-08-17T16:37:17.474Z,2.47
2022-08-17T16:41:54.386Z,2.15
2022-08-17T16:46:33.539Z,2.70
2022-08-17T16:51:04.350Z,2.40
2022-08-17T16:55:36.702Z,2.60
2022-08-17T17:00:13.097Z,2.30
2022-08-17T17:04:50.641Z,2.65
2022-08-17T17:09:27.514Z,2.38
2022-08-17T17:14:02.137Z,2.50
2022-08-17T17:18:43.712Z,3.10
2022-08-17T17:23:07.915Z,2.53
2022-08-17T17:27:41.173Z,2.70
2022-08-17T17:32:17.428Z,2.50
2022-08-17T17:36:51.757Z,2.78
2022-08-17T17:41:31.338Z,3.25
2022-08-17T17:46:26.513Z,2.60
2022-08-17T17:50:50.274Z,3.00
2022-08-17T17:55:41.739Z,2.78
2022-08-17T18:00:12.508Z,2.70
2022-08-17T18:04:43.324Z,2.70
2022-08-17T18:09:19.480Z,2.92
2022-08-17T18:13:56.754Z,2.70
2022-08-17T18:18:37.882Z,3.17
2022-08-17T18:22:41.233Z,3.42
2022-08-17T18:32:25.167Z,3.40
2022-08-17T18:36:50.965Z,3.58
2022-08-17T18:41:30.414Z,3.67
2022-08-17T18:46:16.235Z,3.88
2022-08-17T18:50:42.173Z,3.47
2022-08-17T18:55:15.806Z,3.50
2022-08-17T18:59:49.785Z,3.65
2022-08-17T19:03:53.001Z,3.90
2022-08-17T19:08:34.261Z,4.20
2022-08-17T19:13:12.398Z,4.10
2022-08-17T19:17:43.089Z,4.03
2022-08-17T19:22:29.344Z,3.42
2022-08-17T19:26:51.226Z,3.63
2022-08-17T19:31:13.868Z,3.60
2022-08-17T19:35:25.746Z,3.45
2022-08-17T19:39:58.039Z,3.55
2022-08-17T19:44:29.143Z,3.70
2022-08-17T19:49:12.492Z,3.30
2022-08-17T19:54:04.906Z,3.58
2022-08-17T19:58:34.055Z,3.67
2022-08-17T20:03:06.083Z,3.47
2022-08-17T20:07:38.483Z,4.00
2022-08-17T20:12:08.985Z,3.53
2022-08-17T20:16:43.631Z,3.47
2022-08-17T20:21:22.200Z,3.53
2022-08-17T20:30:46.914Z,4.13
2022-08-17T20:35:23.027Z,3.67
2022-08-17T20:39:34.649Z,3.75
2022-08-17T20:44:04.468Z,3.50
2022-08-17T20:48:45.527Z,3.97
2022-08-17T20:53:16.737Z,3.90
2022-08-17T20:57:47.493Z,4.22
2022-08-17T21:02:22.116Z,3.80
2022-08-17T21:06:27.053Z,4.07
2022-08-17T21:10:39.267Z,3.78
2022-08-17T21:15:01.333Z,4.10
2022-08-17T21:19:31.257Z,4.03
2022-08-17T21:23:54.839Z,3.90
2022-08-17T21:28:16.889Z,4.30
2022-08-17T21:32:31.318Z,4.00
2022-08-17T21:37:13.764Z,3.90
2022-08-17T21:41:22.236Z,3.90
2022-08-17T21:45:53.909Z,4.10
2022-08-17T21:50:14.759Z,4.40
2022-08-17T21:54:31.867Z,3.90
2022-08-17T21:58:59.525Z,4.05
2022-08-17T22:03:04.593Z,4.47
2022-08-17T22:07:10.540Z,4.28
2022-08-17T22:11:52.826Z,3.85
2022-08-17T22:16:15.369Z,4.30
2022-08-17T22:21:08.265Z,4.32
2022-08-17T22:25:22.154Z,4.25
2022-08-17T22:29:44.946Z,4.15
2022-08-17T22:33:51.524Z,4.30
2022-08-17T22:37:54.675Z,3.95
2022-08-17T22:42:00.182Z,3.88
2022-08-17T22:46:12.784Z,4.30
2022-08-17T22:50:26.681Z,3.83
2022-08-17T22:54:47.935Z,4.15
2022-08-17T22:59:10.994Z,4.25
2022-08-17T23:03:19.030Z,4.00
2022-08-17T23:07:53.947Z,3.92
2022-08-17T23:11:58.632Z,4.57
2022-08-17T23:16:02.491Z,4.10
2022-08-17T23:20:08.597Z,4.20
2022-08-17T23:24:20.995Z,3.78
2022-08-17T23:28:24.093Z,4.22
2022-08-17T23:33:02.026Z,4.43
2022-08-17T23:37:05.274Z,4.47
2022-08-17T23:41:14.364Z,4.20
2022-08-17T23:45:18.047Z,4.25
2022-08-17T23:49:21.525Z,4.38
2022-08-17T23:53:26.013Z,4.53
2022-08-17T23:58:05.476Z,4.28
